Time;durP1;ratioP1;P1;durP2;ratioP2;P2;SDS_P1;SDS_P2;PMS_P1;PMS_P2;Temp;Humidity;BMP_temperature;BMP_pressure;BME280_temperature;BME280_humidity;BME280_pressure;Samples;Min_cycle;Max_cycle;Signal;HPM_P1;HPM_P2
2021/11/24 00:02:02;;;;;;;6.00;5.30;;;5.90;81.00;;;;;;4906277;29;21039;-43
2021/11/24 00:04:30;;;;;;;6.40;5.57;;;5.90;81.00;;;;;;4915860;29;20529;-43
2021/11/24 00:06:57;;;;;;;7.43;5.63;;;5.90;81.10;;;;;;4917427;29;20475;-43
2021/11/24 00:09:25;;;;;;;8.70;6.27;;;5.90;81.10;;;;;;4920083;29;20479;-43
2021/11/24 00:11:52;;;;;;;8.30;5.90;;;6.00;81.00;;;;;;4919114;29;20476;-43
2021/11/24 00:14:18;;;;;;;9.23;6.57;;;6.00;81.00;;;;;;4917933;29;20475;-43
2021/11/24 00:16:45;;;;;;;13.37;6.30;;;6.00;81.00;;;;;;4901078;29;20479;-44
2021/11/24 00:19:12;;;;;;;6.83;6.07;;;6.00;81.00;;;;;;4900951;29;20469;-43
2021/11/24 00:21:39;;;;;;;8.67;7.70;;;6.00;80.90;;;;;;4918135;29;20596;-44
2021/11/24 00:24:05;;;;;;;7.70;6.70;;;6.00;81.00;;;;;;4917280;29;20489;-43
2021/11/24 00:26:32;;;;;;;7.20;6.03;;;6.00;81.10;;;;;;4916915;29;20468;-43
2021/11/24 00:28:59;;;;;;;8.60;6.53;;;6.00;81.10;;;;;;4914545;29;20464;-43
2021/11/24 00:31:27;;;;;;;9.00;5.93;;;6.00;81.30;;;;;;4915763;29;20476;-43
2021/11/24 00:33:55;;;;;;;11.17;7.40;;;6.00;81.40;;;;;;4918453;29;20611;-43
2021/11/24 00:36:22;;;;;;;9.50;5.83;;;6.00;81.40;;;;;;4918666;29;20461;-43
2021/11/24 00:38:48;;;;;;;8.27;6.27;;;6.00;81.40;;;;;;4920495;29;20467;-43
2021/11/24 00:41:15;;;;;;;11.23;6.40;;;6.00;81.30;;;;;;4905919;29;20619;-44
2021/11/24 00:43:42;;;;;;;7.70;5.90;;;6.00;81.30;;;;;;4918879;29;20500;-43
2021/11/24 00:46:09;;;;;;;9.57;6.23;;;6.10;81.30;;;;;;4918785;29;20459;-43
2021/11/24 00:48:36;;;;;;;10.30;7.20;;;6.10;81.20;;;;;;4917883;29;20468;-43
2021/11/24 00:51:03;;;;;;;11.83;7.43;;;6.10;81.10;;;;;;4903353;29;20457;-43
2021/11/24 00:53:30;;;;;;;9.13;7.50;;;6.10;81.10;;;;;;4917120;29;20473;-44
2021/11/24 00:55:57;;;;;;;13.17;6.87;;;6.10;81.00;;;;;;4914952;29;20484;-43
2021/11/24 00:58:24;;;;;;;8.23;6.43;;;6.10;80.90;;;;;;4899160;29;20884;-43
2021/11/24 01:00:50;;;;;;;9.07;6.63;;;6.10;80.90;;;;;;4914684;29;20465;-43
2021/11/24 01:03:18;;;;;;;9.00;5.97;;;6.10;80.90;;;;;;4915606;29;20464;-43
2021/11/24 01:05:46;;;;;;;10.67;6.37;;;6.10;80.90;;;;;;4918752;29;20941;-45
2021/11/24 01:08:15;;;;;;;8.10;6.50;;;6.10;80.80;;;;;;4915434;29;20468;-43
2021/11/24 01:10:43;;;;;;;7.73;5.30;;;6.10;80.80;;;;;;4900202;29;20489;-44
2021/11/24 01:13:11;;;;;;;5.70;4.87;;;6.10;80.70;;;;;;4915490;29;20483;-44
2021/11/24 01:15:39;;;;;;;8.57;6.17;;;6.20;80.60;;;;;;4918304;29;20469;-44
2021/11/24 01:18:05;;;;;;;6.80;6.10;;;6.20;80.50;;;;;;4905734;29;20453;-44
2021/11/24 01:20:32;;;;;;;8.90;6.30;;;6.20;80.40;;;;;;4915521;29;20464;-44
2021/11/24 01:22:59;;;;;;;8.17;5.97;;;6.20;80.30;;;;;;4915295;29;20461;-44
2021/11/24 01:25:26;;;;;;;8.60;6.17;;;6.20;80.30;;;;;;4915714;29;20488;-44
2021/11/24 01:27:53;;;;;;;7.57;6.00;;;6.20;80.20;;;;;;4915073;29;20487;-43
2021/11/24 01:30:20;;;;;;;11.43;7.00;;;6.20;80.20;;;;;;4915985;29;20465;-44
2021/11/24 01:32:47;;;;;;;18.40;6.50;;;6.20;80.10;;;;;;4915769;29;20968;-44
2021/11/24 01:35:15;;;;;;;9.60;5.40;;;6.20;80.10;;;;;;4916171;29;20967;-44
2021/11/24 01:37:42;;;;;;;8.77;6.07;;;6.10;80.20;;;;;;4916626;29;20965;-44
2021/11/24 01:40:10;;;;;;;9.53;6.20;;;6.10;80.30;;;;;;4918521;29;20535;-44
2021/11/24 01:42:37;;;;;;;11.90;6.70;;;6.10;80.40;;;;;;4913921;29;20561;-44
2021/11/24 01:45:06;;;;;;;7.93;6.57;;;6.10;80.30;;;;;;4904744;29;20492;-44
2021/11/24 01:47:32;;;;;;;8.87;6.33;;;6.10;80.20;;;;;;4917733;29;20827;-44
2021/11/24 01:49:59;;;;;;;9.47;5.90;;;6.10;80.30;;;;;;4899737;29;20464;-44
2021/11/24 01:52:26;;;;;;;7.43;5.90;;;6.10;80.30;;;;;;4915533;29;20467;-43
2021/11/24 01:54:53;;;;;;;6.13;5.53;;;6.10;80.30;;;;;;4917519;29;20785;-43
2021/11/24 01:57:21;;;;;;;7.00;6.30;;;6.10;80.20;;;;;;4901965;29;20449;-43
2021/11/24 01:59:48;;;;;;;10.40;6.13;;;6.10;80.20;;;;;;4915962;29;20899;-43
2021/11/24 02:02:17;;;;;;;6.87;5.70;;;6.10;80.10;;;;;;4918878;29;20487;-43
2021/11/24 02:04:44;;;;;;;8.83;5.80;;;6.10;80.20;;;;;;4917771;29;20524;-44
2021/11/24 02:07:11;;;;;;;9.00;5.90;;;6.10;80.30;;;;;;4918027;29;20449;-44
2021/11/24 02:09:38;;;;;;;10.47;5.93;;;6.10;80.30;;;;;;4917813;29;20450;-44
2021/11/24 02:12:05;;;;;;;11.13;6.03;;;6.10;80.10;;;;;;4918009;29;20939;-44
2021/11/24 02:14:32;;;;;;;9.03;5.90;;;6.10;80.10;;;;;;4914081;29;20480;-43
2021/11/24 02:16:59;;;;;;;8.93;6.10;;;6.10;80.10;;;;;;4916016;29;20465;-43
2021/11/24 02:19:31;;;;;;;8.43;6.47;;;6.10;80.10;;;;;;4917755;29;20472;-43
2021/11/24 02:21:58;;;;;;;11.00;6.80;;;6.10;80.10;;;;;;4912711;29;20825;-44
2021/11/24 02:24:35;;;;;;;7.77;6.23;;;6.10;80.10;;;;;;4916688;29;20492;-44
2021/11/24 02:27:06;;;;;;;13.13;6.67;;;6.10;80.10;;;;;;4920250;29;20833;-44
2021/11/24 02:29:33;;;;;;;9.23;6.67;;;6.10;80.10;;;;;;4920663;29;20453;-44
2021/11/24 02:32:02;;;;;;;9.17;6.77;;;6.10;80.00;;;;;;4917960;29;20456;-44
2021/11/24 02:34:30;;;;;;;7.77;6.17;;;6.10;80.10;;;;;;4921322;29;20475;-44
2021/11/24 02:36:57;;;;;;;9.20;7.20;;;6.10;80.00;;;;;;4935955;29;20465;-44
2021/11/24 02:39:24;;;;;;;9.17;6.50;;;6.10;80.10;;;;;;4904809;29;20469;-44
2021/11/24 02:41:51;;;;;;;8.23;6.17;;;6.10;80.10;;;;;;4918937;29;20474;-44
2021/11/24 02:44:20;;;;;;;9.20;6.43;;;6.10;80.10;;;;;;4919779;29;20500;-43
2021/11/24 02:46:47;;;;;;;10.53;6.27;;;6.10;80.00;;;;;;4920912;29;20461;-43
2021/11/24 02:49:14;;;;;;;7.63;6.77;;;6.10;80.10;;;;;;4918892;29;20473;-43
2021/11/24 02:51:42;;;;;;;7.80;6.30;;;6.10;79.90;;;;;;4907378;29;20528;-43
2021/11/24 02:54:09;;;;;;;7.43;6.73;;;6.10;79.90;;;;;;4917269;29;20461;-44
2021/11/24 02:56:39;;;;;;;7.47;6.07;;;6.10;79.90;;;;;;4920547;29;20567;-43
2021/11/24 02:59:11;;;;;;;12.90;6.10;;;6.10;80.00;;;;;;4921416;29;20457;-43
2021/11/24 03:01:39;;;;;;;7.73;6.33;;;6.10;79.90;;;;;;4917725;29;21002;-43
2021/11/24 03:04:10;;;;;;;9.20;6.77;;;6.10;79.90;;;;;;4918103;29;20502;-43
2021/11/24 03:06:37;;;;;;;8.93;7.67;;;6.20;79.90;;;;;;4918775;29;20477;-44
2021/11/24 03:09:04;;;;;;;8.73;7.13;;;6.10;79.90;;;;;;4905155;29;20466;-44
2021/11/24 03:11:31;;;;;;;10.27;5.93;;;6.20;80.00;;;;;;4902341;29;20472;-44
2021/11/24 03:13:58;;;;;;;7.90;6.43;;;6.10;80.00;;;;;;4917967;29;20907;-44
2021/11/24 03:16:25;;;;;;;8.90;7.00;;;6.10;80.00;;;;;;4917929;29;20881;-44
2021/11/24 03:18:51;;;;;;;7.87;6.40;;;6.10;80.10;;;;;;4901752;29;20457;-44
2021/11/24 03:21:19;;;;;;;9.97;6.40;;;6.10;80.10;;;;;;4913430;29;20892;-44
2021/11/24 03:23:46;;;;;;;9.73;7.57;;;6.10;80.00;;;;;;4917682;29;20873;-44
2021/11/24 03:26:14;;;;;;;9.80;7.00;;;6.10;80.00;;;;;;4918273;29;21002;-44
2021/11/24 03:28:41;;;;;;;9.73;8.30;;;6.10;80.10;;;;;;4919185;29;20476;-44
2021/11/24 03:31:08;;;;;;;8.23;7.43;;;6.10;80.10;;;;;;4918896;29;20475;-44
2021/11/24 03:33:35;;;;;;;7.57;6.87;;;6.10;80.10;;;;;;4918342;29;20573;-44
2021/11/24 03:36:02;;;;;;;7.90;7.03;;;6.10;80.20;;;;;;4886367;29;20475;-44
2021/11/24 03:38:29;;;;;;;8.23;7.27;;;6.10;80.00;;;;;;4915473;29;20477;-44
2021/11/24 03:40:56;;;;;;;12.13;8.20;;;6.10;80.00;;;;;;4903563;29;21310;-44
2021/11/24 03:43:22;;;;;;;7.97;7.00;;;6.10;80.00;;;;;;4917255;29;20980;-44
2021/11/24 03:45:49;;;;;;;9.10;7.03;;;6.10;80.10;;;;;;4912413;29;20504;-44
2021/11/24 03:48:16;;;;;;;8.83;7.50;;;6.10;80.10;;;;;;4917770;29;20468;-44
2021/11/24 03:50:43;;;;;;;11.47;7.60;;;6.10;80.10;;;;;;4918310;29;20469;-44
2021/11/24 03:53:09;;;;;;;9.53;6.90;;;6.10;80.10;;;;;;4915082;29;20465;-44
2021/11/24 03:55:36;;;;;;;9.37;7.80;;;6.10;80.10;;;;;;4902297;29;20489;-44
2021/11/24 03:58:06;;;;;;;10.50;7.83;;;6.10;80.10;;;;;;4910785;29;20862;-42
2021/11/24 04:00:34;;;;;;;10.23;7.43;;;6.10;80.10;;;;;;4891851;29;20847;-42
2021/11/24 04:03:01;;;;;;;11.13;7.87;;;6.10;80.10;;;;;;4908891;29;20473;-42
2021/11/24 04:05:28;;;;;;;11.60;7.33;;;6.10;80.10;;;;;;4908143;29;20488;-42
2021/11/24 04:07:56;;;;;;;8.57;7.03;;;6.10;80.20;;;;;;4908044;29;20544;-42
2021/11/24 04:10:23;;;;;;;8.77;7.60;;;6.10;80.20;;;;;;4878241;29;20588;-42
2021/11/24 04:12:50;;;;;;;12.13;6.57;;;6.10;80.20;;;;;;4910364;29;20729;-42
2021/11/24 04:15:19;;;;;;;9.93;8.10;;;6.10;80.10;;;;;;4906691;29;20998;-42
2021/11/24 04:17:46;;;;;;;8.83;6.90;;;6.10;80.10;;;;;;4908346;29;20823;-42
2021/11/24 04:20:16;;;;;;;14.27;7.93;;;6.10;80.00;;;;;;4905657;29;20473;-42
2021/11/24 04:22:43;;;;;;;12.00;7.83;;;6.10;80.00;;;;;;4908109;29;20475;-42
2021/11/24 04:25:11;;;;;;;8.27;7.43;;;6.10;80.00;;;;;;4910438;29;20503;-42
2021/11/24 04:27:38;;;;;;;10.50;8.33;;;6.20;79.90;;;;;;4891257;29;20529;-42
2021/11/24 04:30:06;;;;;;;14.73;7.20;;;6.10;79.90;;;;;;4907374;29;20887;-42
2021/11/24 04:32:33;;;;;;;12.27;8.20;;;6.10;80.00;;;;;;4908632;29;20461;-42
2021/11/24 04:35:00;;;;;;;7.43;6.13;;;6.10;80.00;;;;;;4906181;29;20481;-42
2021/11/24 04:37:27;;;;;;;12.70;6.50;;;6.10;80.00;;;;;;4905871;29;20461;-41
2021/11/24 04:39:54;;;;;;;12.20;7.63;;;6.20;80.10;;;;;;4908398;29;20457;-41
2021/11/24 04:42:20;;;;;;;10.33;7.57;;;6.10;80.10;;;;;;4893837;29;20465;-41
2021/11/24 04:44:47;;;;;;;13.23;7.87;;;6.20;80.10;;;;;;4908576;29;20497;-41
2021/11/24 04:47:14;;;;;;;7.60;6.87;;;6.20;80.10;;;;;;4909247;29;20500;-41
2021/11/24 04:49:42;;;;;;;10.00;6.87;;;6.20;80.10;;;;;;4909162;29;20795;-41
2021/11/24 04:52:09;;;;;;;9.50;7.20;;;6.20;80.20;;;;;;4886991;29;20543;-41
2021/11/24 04:54:36;;;;;;;15.03;7.47;;;6.20;80.20;;;;;;4909905;29;20548;-41
2021/11/24 04:57:03;;;;;;;12.03;7.67;;;6.10;80.30;;;;;;4894796;29;20536;-41
2021/11/24 04:59:30;;;;;;;8.43;7.10;;;6.10;80.30;;;;;;4907738;29;20983;-41
2021/11/24 05:01:57;;;;;;;14.77;8.00;;;6.10;80.40;;;;;;4907452;29;20465;-42
2021/11/24 05:04:25;;;;;;;11.63;8.03;;;6.10;80.40;;;;;;4921684;29;20512;-41
2021/11/24 05:06:52;;;;;;;10.30;7.67;;;6.10;80.30;;;;;;4907239;29;20464;-41
2021/11/24 05:09:19;;;;;;;9.70;8.10;;;6.10;80.50;;;;;;4921793;29;20555;-41
2021/11/24 05:11:46;;;;;;;7.63;6.30;;;6.10;80.50;;;;;;4890108;29;20480;-41
2021/11/24 05:14:18;;;;;;;9.03;7.70;;;6.10;80.60;;;;;;4907143;29;20547;-42
2021/11/24 05:16:48;;;;;;;13.53;8.10;;;6.10;80.70;;;;;;4906009;29;20473;-41
2021/11/24 05:19:22;;;;;;;10.17;7.30;;;6.10;80.70;;;;;;4907063;29;20496;-41
2021/11/24 05:21:53;;;;;;;15.10;7.70;;;6.10;80.50;;;;;;4905728;29;20457;-41
2021/11/24 05:24:20;;;;;;;8.30;6.80;;;6.10;80.60;;;;;;4907251;29;21020;-42
2021/11/24 05:26:48;;;;;;;8.73;7.80;;;6.10;80.70;;;;;;4907641;29;20465;-42
2021/11/24 05:29:15;;;;;;;13.40;9.00;;;6.10;80.60;;;;;;4889091;29;20465;-42
2021/11/24 05:31:42;;;;;;;10.20;7.93;;;6.10;80.70;;;;;;4906203;29;20465;-42
2021/11/24 05:34:09;;;;;;;10.03;9.03;;;6.10;80.80;;;;;;4908409;29;20459;-42
2021/11/24 05:36:36;;;;;;;9.93;7.43;;;6.10;80.90;;;;;;4909168;29;20555;-42
2021/11/24 05:39:06;;;;;;;10.57;7.43;;;6.10;80.90;;;;;;4908707;29;20574;-41
2021/11/24 05:41:37;;;;;;;13.93;7.43;;;6.10;80.80;;;;;;4909069;29;20467;-41
2021/11/24 05:44:16;;;;;;;9.73;7.73;;;6.10;80.80;;;;;;4907419;29;20468;-41
2021/11/24 05:46:55;;;;;;;8.00;7.20;;;6.10;80.90;;;;;;4908625;29;20492;-41
2021/11/24 05:49:24;;;;;;;11.33;8.37;;;6.10;80.90;;;;;;4891418;29;20467;-41
2021/11/24 05:51:55;;;;;;;10.30;8.10;;;6.10;81.00;;;;;;4892044;29;20473;-41
2021/11/24 05:54:23;;;;;;;9.30;7.43;;;6.10;81.10;;;;;;4906411;29;20468;-41
2021/11/24 05:56:50;;;;;;;12.17;10.97;;;6.10;81.10;;;;;;4905493;29;20500;-41
2021/11/24 05:59:18;;;;;;;11.03;8.80;;;6.10;81.10;;;;;;4907543;29;20468;-41
2021/11/24 06:01:45;;;;;;;10.97;8.57;;;6.10;81.10;;;;;;4906081;29;20473;-41
2021/11/24 06:04:12;;;;;;;11.90;8.87;;;6.10;81.00;;;;;;4912515;29;20472;-41
2021/11/24 06:06:39;;;;;;;10.27;8.00;;;6.10;81.10;;;;;;4897436;29;20495;-42
2021/11/24 06:09:06;;;;;;;11.60;8.57;;;6.10;81.10;;;;;;4913139;29;20480;-42
2021/11/24 06:11:33;;;;;;;10.63;9.00;;;6.10;81.00;;;;;;4891923;29;21084;-42
2021/11/24 06:14:00;;;;;;;11.43;8.00;;;6.10;81.10;;;;;;4912918;29;20475;-42
2021/11/24 06:16:27;;;;;;;10.37;8.73;;;6.10;81.10;;;;;;4895231;29;20468;-42
2021/11/24 06:18:54;;;;;;;10.13;7.20;;;6.10;81.30;;;;;;4913266;29;20810;-42
2021/11/24 06:21:22;;;;;;;13.50;8.17;;;6.10;81.30;;;;;;4912111;29;20499;-41
2021/11/24 06:23:50;;;;;;;11.17;8.30;;;6.10;81.20;;;;;;4913247;29;20498;-41
2021/11/24 06:26:19;;;;;;;13.20;8.70;;;6.10;81.30;;;;;;4912783;29;20502;-41
2021/11/24 06:28:46;;;;;;;12.10;8.40;;;6.10;81.30;;;;;;4913123;29;20468;-41
2021/11/24 06:31:13;;;;;;;13.67;9.10;;;6.10;81.50;;;;;;4875730;29;20475;-42
2021/11/24 06:33:40;;;;;;;10.83;8.77;;;6.10;81.40;;;;;;4912405;29;20492;-41
2021/11/24 06:36:07;;;;;;;18.40;10.00;;;6.10;81.30;;;;;;4900355;29;20956;-41
2021/11/24 06:38:34;;;;;;;12.50;8.93;;;6.10;81.40;;;;;;4914317;29;20818;-42
2021/11/24 06:41:01;;;;;;;10.47;8.87;;;6.10;81.50;;;;;;4913564;29;20471;-41
2021/11/24 06:43:28;;;;;;;11.97;9.70;;;6.10;81.50;;;;;;4909658;29;20469;-41
2021/11/24 06:45:55;;;;;;;13.90;11.03;;;6.10;81.50;;;;;;4911457;29;20487;-41
2021/11/24 06:48:22;;;;;;;16.90;10.03;;;6.10;81.50;;;;;;4911877;29;20457;-41
2021/11/24 06:50:48;;;;;;;12.23;9.20;;;6.10;81.50;;;;;;4909915;29;20468;-41
2021/11/24 06:53:15;;;;;;;10.73;8.80;;;6.10;81.60;;;;;;4878239;29;21067;-41
2021/11/24 06:55:42;;;;;;;12.30;9.50;;;6.10;81.60;;;;;;4909437;29;20481;-41
2021/11/24 06:58:09;;;;;;;12.87;9.53;;;6.10;81.60;;;;;;4897117;29;20484;-41
2021/11/24 07:00:35;;;;;;;15.30;9.70;;;6.10;81.60;;;;;;4911534;29;20479;-41
2021/11/24 07:03:02;;;;;;;12.13;9.17;;;6.10;81.60;;;;;;4897147;29;20475;-41
2021/11/24 07:05:29;;;;;;;20.03;9.80;;;6.20;81.60;;;;;;4895092;29;20495;-41
2021/11/24 07:07:56;;;;;;;10.47;8.60;;;6.20;81.60;;;;;;4912328;29;20666;-41
2021/11/24 07:10:23;;;;;;;11.50;8.37;;;6.20;81.60;;;;;;4911609;29;20496;-41
2021/11/24 07:12:50;;;;;;;12.13;9.03;;;6.20;81.60;;;;;;4908506;29;20549;-41
2021/11/24 07:15:17;;;;;;;14.70;8.90;;;6.30;81.50;;;;;;4892235;29;20609;-41
2021/11/24 07:17:44;;;;;;;12.70;9.13;;;6.30;81.40;;;;;;4908328;29;20552;-41
2021/11/24 07:20:11;;;;;;;15.00;9.30;;;6.20;81.50;;;;;;4892449;29;20968;-41
2021/11/24 07:22:38;;;;;;;11.80;9.37;;;6.20;81.70;;;;;;4909784;29;20495;-41
2021/11/24 07:25:05;;;;;;;16.60;8.50;;;6.20;81.80;;;;;;4896171;29;20464;-41
2021/11/24 07:27:32;;;;;;;10.50;8.47;;;6.20;81.70;;;;;;4891635;29;20479;-41
2021/11/24 07:29:59;;;;;;;13.00;9.33;;;6.20;81.70;;;;;;4893369;29;20472;-41
2021/11/24 07:32:26;;;;;;;10.80;9.67;;;6.20;81.80;;;;;;4891860;29;20460;-42
2021/11/24 07:34:53;;;;;;;13.03;9.93;;;6.20;81.80;;;;;;4892873;29;20460;-41
2021/11/24 07:37:25;;;;;;;12.87;8.77;;;6.20;81.80;;;;;;4892572;29;20476;-42
2021/11/24 07:39:52;;;;;;;10.80;9.70;;;6.20;81.70;;;;;;4892716;29;20480;-42
2021/11/24 07:42:18;;;;;;;16.57;9.60;;;6.20;81.60;;;;;;4910737;29;20492;-42
2021/11/24 07:44:45;;;;;;;9.27;7.47;;;6.20;81.60;;;;;;4892094;29;20481;-42
2021/11/24 07:47:12;;;;;;;12.23;8.80;;;6.20;81.60;;;;;;4909497;29;21036;-41
2021/11/24 07:49:39;;;;;;;10.90;8.40;;;6.30;81.40;;;;;;4910001;29;20889;-41
2021/11/24 07:52:06;;;;;;;9.97;8.97;;;6.30;81.50;;;;;;4908512;29;20457;-41
2021/11/24 07:54:34;;;;;;;14.57;10.47;;;6.30;81.40;;;;;;4907418;29;20466;-42
2021/11/24 07:57:00;;;;;;;13.93;9.80;;;6.30;81.50;;;;;;4909200;29;20481;-41
2021/11/24 07:59:27;;;;;;;10.47;8.40;;;6.30;81.50;;;;;;4911218;29;20472;-42
2021/11/24 08:01:54;;;;;;;16.73;11.67;;;6.30;81.50;;;;;;4908694;29;20453;-42
2021/11/24 08:04:21;;;;;;;18.23;11.57;;;6.30;81.60;;;;;;4910829;29;20551;-42
2021/11/24 08:06:48;;;;;;;10.30;8.90;;;6.30;81.50;;;;;;4889618;29;20539;-42
2021/11/24 08:09:15;;;;;;;12.20;9.27;;;6.30;81.40;;;;;;4894748;29;20461;-42
2021/11/24 08:11:41;;;;;;;15.93;10.60;;;6.30;81.40;;;;;;4910372;29;20843;-42
2021/11/24 08:14:08;;;;;;;17.30;9.40;;;6.30;81.50;;;;;;4891154;29;20950;-42
2021/11/24 08:16:35;;;;;;;15.97;10.07;;;6.40;81.50;;;;;;4891889;29;20480;-42
2021/11/24 08:19:02;;;;;;;13.90;10.23;;;6.40;81.50;;;;;;4907687;29;20694;-42
2021/11/24 08:21:29;;;;;;;14.07;10.20;;;6.40;81.40;;;;;;4891594;29;20462;-42
2021/11/24 08:23:55;;;;;;;13.57;9.80;;;6.40;81.30;;;;;;4907370;29;21261;-41
2021/11/24 08:26:24;;;;;;;11.80;8.90;;;6.40;81.40;;;;;;4907304;29;20879;-42
2021/11/24 08:28:51;;;;;;;15.23;10.40;;;6.50;81.40;;;;;;4907344;29;20457;-41
2021/11/24 08:31:18;;;;;;;13.30;9.47;;;6.50;81.20;;;;;;4893437;29;21263;-42
2021/11/24 08:33:45;;;;;;;10.90;8.83;;;6.50;81.20;;;;;;4907103;29;20464;-42
2021/11/24 08:36:15;;;;;;;11.83;9.30;;;6.50;81.20;;;;;;4892974;29;20464;-41
2021/11/24 08:38:45;;;;;;;9.57;8.57;;;6.50;81.20;;;;;;4890239;29;20461;-41
2021/11/24 08:41:15;;;;;;;15.03;9.27;;;6.50;81.20;;;;;;4910268;29;21027;-41
2021/11/24 08:43:42;;;;;;;12.27;9.13;;;6.50;81.20;;;;;;4893740;29;20460;-41
2021/11/24 08:46:09;;;;;;;10.30;7.77;;;6.60;81.10;;;;;;4909793;29;20495;-42
2021/11/24 08:48:35;;;;;;;9.67;7.20;;;6.60;80.90;;;;;;4907134;29;20471;-42
2021/11/24 08:51:03;;;;;;;11.83;8.60;;;6.60;80.80;;;;;;4907967;29;20463;-41
2021/11/24 08:53:29;;;;;;;11.97;8.57;;;6.50;80.90;;;;;;4908130;29;20465;-41
2021/11/24 08:55:57;;;;;;;18.30;10.57;;;6.50;80.80;;;;;;4910724;29;20575;-41
2021/11/24 08:58:23;;;;;;;12.90;7.63;;;6.60;80.90;;;;;;4890190;29;20683;-42
2021/11/24 09:00:51;;;;;;;17.50;8.90;;;6.50;80.70;;;;;;4892252;29;20465;-42
2021/11/24 09:03:18;;;;;;;11.83;7.83;;;6.60;80.60;;;;;;4908142;29;20536;-42
2021/11/24 09:05:46;;;;;;;10.80;8.00;;;6.60;80.50;;;;;;4907838;29;20511;-42
2021/11/24 09:08:13;;;;;;;13.13;8.20;;;6.60;80.20;;;;;;4892454;29;20469;-42
2021/11/24 09:10:40;;;;;;;11.90;8.40;;;6.60;80.30;;;;;;4909365;29;20463;-42
2021/11/24 09:13:08;;;;;;;11.13;8.10;;;6.60;80.40;;;;;;4895027;29;21154;-42
2021/11/24 09:15:35;;;;;;;11.57;7.20;;;6.60;80.40;;;;;;4907996;29;20808;-42
2021/11/24 09:18:12;;;;;;;8.77;7.67;;;6.60;80.40;;;;;;4907999;29;20457;-42
2021/11/24 09:20:39;;;;;;;10.13;7.30;;;6.70;80.10;;;;;;4892523;29;20453;-42
2021/11/24 09:23:06;;;;;;;10.17;8.63;;;6.70;79.80;;;;;;4909342;29;20471;-42
2021/11/24 09:28:36;;;;;;;14.73;7.37;;;6.70;79.70;;;;;;4866918;29;20466;-41
2021/11/24 09:31:04;;;;;;;8.60;7.40;;;6.80;79.60;;;;;;4900207;29;20940;-42
2021/11/24 09:33:31;;;;;;;14.00;8.20;;;6.80;79.50;;;;;;4876007;29;20843;-41
2021/11/24 09:35:58;;;;;;;12.97;7.10;;;6.80;79.50;;;;;;4889393;29;20485;-42
2021/11/24 09:38:25;;;;;;;11.97;8.20;;;6.80;79.10;;;;;;4906623;29;20490;-41
2021/11/24 09:40:55;;;;;;;8.23;6.33;;;6.90;79.00;;;;;;4907136;29;20469;-41
2021/11/24 09:43:27;;;;;;;10.30;7.30;;;6.90;79.00;;;;;;4907210;29;20481;-41
2021/11/24 09:45:55;;;;;;;10.93;7.13;;;6.90;79.00;;;;;;4907463;29;20493;-42
2021/11/24 09:48:23;;;;;;;12.57;7.40;;;7.00;78.90;;;;;;4908669;29;20512;-42
2021/11/24 09:50:50;;;;;;;8.83;7.30;;;7.10;78.80;;;;;;4907215;29;20471;-42
2021/11/24 09:53:17;;;;;;;9.43;7.23;;;7.10;78.30;;;;;;4891629;29;20464;-41
2021/11/24 09:55:45;;;;;;;8.27;7.50;;;7.10;78.20;;;;;;4907320;29;22231;-42
2021/11/24 09:58:15;;;;;;;13.97;7.60;;;7.20;78.10;;;;;;4904670;29;20543;-42
2021/11/24 10:00:42;;;;;;;8.90;7.93;;;7.20;78.20;;;;;;4887933;29;20532;-41
2021/11/24 10:03:10;;;;;;;8.60;6.80;;;7.20;78.10;;;;;;4907500;29;20471;-42
2021/11/24 10:05:37;;;;;;;9.17;6.80;;;7.20;78.00;;;;;;4891074;29;20524;-41
2021/11/24 10:08:05;;;;;;;11.43;6.40;;;7.20;78.00;;;;;;4890671;29;20473;-42
2021/11/24 10:10:33;;;;;;;10.83;6.20;;;7.20;77.70;;;;;;4886970;29;20461;-42
2021/11/24 10:13:00;;;;;;;6.73;5.40;;;7.30;77.40;;;;;;4891211;29;20468;-42
2021/11/24 10:15:52;;;;;;;6.03;5.33;;;7.30;77.10;;;;;;4904739;29;20568;-42
2021/11/24 10:18:35;;;;;;;6.47;5.40;;;7.40;76.80;;;;;;4904510;29;21030;-42
2021/11/24 10:21:08;;;;;;;5.63;4.70;;;7.40;76.30;;;;;;4908028;29;20461;-41
2021/11/24 10:23:42;;;;;;;8.70;5.00;;;7.40;75.90;;;;;;4902508;29;20475;-41
2021/11/24 10:26:23;;;;;;;6.97;6.10;;;7.50;75.80;;;;;;4908159;29;20503;-41
2021/11/24 10:29:09;;;;;;;13.40;5.53;;;7.60;75.90;;;;;;4906298;29;20836;-42
2021/11/24 10:31:43;;;;;;;6.80;4.90;;;7.60;75.20;;;;;;4906823;29;20472;-42
2021/11/24 10:34:16;;;;;;;5.27;4.50;;;7.70;74.50;;;;;;4896436;29;20461;-42
2021/11/24 10:37:16;;;;;;;5.00;4.03;;;7.70;74.30;;;;;;4907423;29;21001;-41
2021/11/24 10:39:53;;;;;;;9.13;4.60;;;7.60;74.10;;;;;;4863293;29;20568;-41
2021/11/24 10:42:36;;;;;;;7.93;5.50;;;7.70;73.80;;;;;;4892784;29;20548;-41
2021/11/24 10:45:13;;;;;;;5.00;4.40;;;7.70;73.50;;;;;;4905616;29;20515;-41
2021/11/24 10:47:50;;;;;;;3.30;3.00;;;7.70;73.10;;;;;;4906324;29;20485;-41
2021/11/24 10:50:22;;;;;;;3.97;3.20;;;7.70;72.70;;;;;;4910754;29;20472;-41
2021/11/24 10:53:02;;;;;;;3.83;3.20;;;7.70;72.80;;;;;;4908755;29;20619;-41
2021/11/24 10:55:33;;;;;;;3.87;3.03;;;7.80;72.90;;;;;;4907951;29;20493;-41
2021/11/24 10:58:07;;;;;;;5.30;4.87;;;7.80;72.80;;;;;;4908780;29;20853;-42
2021/11/24 11:00:51;;;;;;;3.60;3.30;;;7.80;72.50;;;;;;4903453;29;20685;-42
2021/11/24 11:03:38;;;;;;;3.50;2.37;;;7.80;72.50;;;;;;4908200;29;20483;-42
2021/11/24 11:06:04;;;;;;;3.67;3.23;;;7.80;72.30;;;;;;4907050;29;20476;-42
2021/11/24 11:08:31;;;;;;;8.17;7.37;;;7.80;72.40;;;;;;4909783;29;20575;-42
2021/11/24 11:11:35;;;;;;;5.20;4.27;;;7.80;72.60;;;;;;4907171;29;20467;-41
2021/11/24 11:14:19;;;;;;;3.97;3.23;;;7.70;71.90;;;;;;4885758;29;20472;-42
2021/11/24 11:16:54;;;;;;;3.67;2.77;;;7.70;71.20;;;;;;4907570;29;20468;-42
2021/11/24 11:19:49;;;;;;;2.87;2.67;;;7.70;71.20;;;;;;4910171;29;20477;-42
2021/11/24 11:22:19;;;;;;;3.57;3.07;;;7.70;71.10;;;;;;4908779;29;20467;-41
2021/11/24 11:24:47;;;;;;;4.20;2.97;;;7.60;71.30;;;;;;4908755;29;21003;-43
2021/11/24 11:27:14;;;;;;;1.90;1.80;;;7.60;71.30;;;;;;4905344;29;21054;-42
2021/11/24 11:29:42;;;;;;;2.80;2.60;;;7.50;71.60;;;;;;4893474;29;20475;-42
2021/11/24 11:32:10;;;;;;;4.63;4.20;;;7.60;71.70;;;;;;4907863;29;20512;-43
2021/11/24 11:34:38;;;;;;;4.40;2.70;;;7.60;71.70;;;;;;4909028;29;20464;-43
2021/11/24 11:37:06;;;;;;;5.20;3.33;;;7.60;71.70;;;;;;4895031;29;20544;-43
2021/11/24 11:39:34;;;;;;;4.10;2.93;;;7.60;71.60;;;;;;4910017;29;20469;-42
2021/11/24 11:42:14;;;;;;;2.90;2.33;;;7.60;71.80;;;;;;4910611;29;20484;-42
2021/11/24 11:45:08;;;;;;;3.57;3.10;;;7.60;71.70;;;;;;4905798;29;20473;-42
2021/11/24 11:47:46;;;;;;;3.63;2.23;;;7.60;71.40;;;;;;4911488;29;20510;-41
2021/11/24 11:50:34;;;;;;;2.33;2.13;;;7.70;71.60;;;;;;4909924;29;21972;-41
2021/11/24 11:53:14;;;;;;;2.03;1.87;;;7.70;71.70;;;;;;4909660;29;20464;-41
2021/11/24 11:55:41;;;;;;;3.13;2.80;;;7.70;71.60;;;;;;4907970;29;21012;-42
2021/11/24 11:58:24;;;;;;;4.37;3.10;;;7.60;71.30;;;;;;4908781;29;20465;-42
2021/11/24 12:01:26;;;;;;;3.40;2.77;;;7.60;71.60;;;;;;4908118;29;20567;-41
2021/11/24 12:04:22;;;;;;;3.20;2.53;;;7.70;71.40;;;;;;4886796;29;20468;-41
2021/11/24 12:06:52;;;;;;;4.13;3.53;;;7.70;71.10;;;;;;4907412;29;20495;-41
2021/11/24 12:09:33;;;;;;;10.20;5.40;;;7.70;70.90;;;;;;4907574;29;20511;-41
2021/11/24 12:12:07;;;;;;;4.20;2.87;;;7.60;71.10;;;;;;4909462;29;20460;-41
2021/11/24 12:14:40;;;;;;;2.83;2.53;;;7.60;71.00;;;;;;4910233;29;20567;-41
2021/11/24 12:17:34;;;;;;;1.70;1.60;;;7.60;71.10;;;;;;4908406;29;20468;-41
2021/11/24 12:20:17;;;;;;;2.87;1.73;;;7.60;71.10;;;;;;4907676;29;20957;-41
2021/11/24 12:22:51;;;;;;;2.00;1.90;;;7.60;71.10;;;;;;4908385;29;20587;-41
2021/11/24 12:25:23;;;;;;;3.90;3.60;;;7.60;71.20;;;;;;4910609;29;20461;-41
2021/11/24 12:27:50;;;;;;;2.83;2.53;;;7.60;71.60;;;;;;4908369;29;20867;-41
2021/11/24 12:33:16;;;;;;;2.33;1.80;;;7.60;71.70;;;;;;4909651;29;20473;-41
2021/11/24 12:35:53;;;;;;;2.17;1.70;;;7.70;70.90;;;;;;4908492;29;20449;-41
2021/11/24 12:38:45;;;;;;;2.10;2.00;;;7.60;70.70;;;;;;4908796;29;21014;-41
2021/11/24 12:41:20;;;;;;;1.93;1.83;;;7.60;70.50;;;;;;4909592;29;20844;-43
2021/11/24 12:43:59;;;;;;;1.87;1.63;;;7.60;70.60;;;;;;4909327;29;20480;-41
2021/11/24 12:46:28;;;;;;;3.20;2.20;;;7.60;70.40;;;;;;4900578;29;20491;-41
2021/11/24 12:49:15;;;;;;;1.83;1.73;;;7.60;70.50;;;;;;4900373;29;20457;-41
2021/11/24 12:51:48;;;;;;;2.20;2.00;;;7.50;70.60;;;;;;4890935;29;20529;-42
2021/11/24 12:54:26;;;;;;;3.23;3.03;;;7.50;70.60;;;;;;4887982;29;20472;-42
2021/11/24 12:56:56;;;;;;;5.50;2.53;;;7.60;70.90;;;;;;4921381;29;21009;-42
2021/11/24 12:59:26;;;;;;;3.17;2.77;;;7.60;70.50;;;;;;4902584;29;20473;-42
2021/11/24 13:01:54;;;;;;;2.83;2.27;;;7.60;70.50;;;;;;4902014;29;20481;-42
2021/11/24 13:04:38;;;;;;;1.90;1.80;;;7.60;70.30;;;;;;4899735;29;21060;-42
2021/11/24 13:07:12;;;;;;;5.73;2.20;;;7.60;70.30;;;;;;4901310;29;20512;-41
2021/11/24 13:09:40;;;;;;;3.93;3.40;;;7.60;70.30;;;;;;4883608;29;20520;-41
2021/11/24 13:12:13;;;;;;;5.03;3.50;;;7.70;70.60;;;;;;4908501;29;20465;-41